sensor_id;sensor_type;location;lat;lon;timestamp;P1;durP1;ratioP1;P2;durP2;ratioP2
63350;SDS011;54336;51.058;17.040;2022-10-12T00:04:16;34.78;;;13.10;;
63350;SDS011;54336;51.058;17.040;2022-10-12T00:10:08;38.72;;;14.85;;
63350;SDS011;54336;51.058;17.040;2022-10-12T00:16:03;34.20;;;12.80;;
63350;SDS011;54336;51.058;17.040;2022-10-12T00:21:56;26.35;;;11.75;;
63350;SDS011;54336;51.058;17.040;2022-10-12T00:27:48;27.58;;;12.95;;
63350;SDS011;54336;51.058;17.040;2022-10-12T00:33:40;26.98;;;11.75;;
63350;SDS011;54336;51.058;17.040;2022-10-12T00:39:32;30.30;;;11.40;;
63350;SDS011;54336;51.058;17.040;2022-10-12T00:45:24;40.05;;;12.18;;
63350;SDS011;54336;51.058;17.040;2022-10-12T00:51:17;26.97;;;11.43;;
63350;SDS011;54336;51.058;17.040;2022-10-12T01:03:02;24.90;;;9.73;;
63350;SDS011;54336;51.058;17.040;2022-10-12T01:08:55;28.48;;;11.98;;
63350;SDS011;54336;51.058;17.040;2022-10-12T01:14:48;31.48;;;12.25;;
63350;SDS011;54336;51.058;17.040;2022-10-12T01:26:42;20.45;;;9.63;;
63350;SDS011;54336;51.058;17.040;2022-10-12T01:32:41;17.43;;;8.97;;
63350;SDS011;54336;51.058;17.040;2022-10-12T01:38:41;23.70;;;9.90;;
63350;SDS011;54336;51.058;17.040;2022-10-12T01:44:34;26.17;;;9.23;;
63350;SDS011;54336;51.058;17.040;2022-10-12T01:50:35;24.38;;;10.05;;
63350;SDS011;54336;51.058;17.040;2022-10-12T01:56:32;33.42;;;10.43;;
63350;SDS011;54336;51.058;17.040;2022-10-12T02:14:22;17.08;;;8.93;;
63350;SDS011;54336;51.058;17.040;2022-10-12T02:20:16;23.65;;;9.05;;
63350;SDS011;54336;51.058;17.040;2022-10-12T02:26:10;25.20;;;8.40;;
63350;SDS011;54336;51.058;17.040;2022-10-12T02:38:01;20.08;;;7.90;;
63350;SDS011;54336;51.058;17.040;2022-10-12T02:43:56;12.80;;;6.88;;
63350;SDS011;54336;51.058;17.040;2022-10-12T02:49:49;18.58;;;8.50;;
63350;SDS011;54336;51.058;17.040;2022-10-12T02:55:49;19.63;;;7.13;;
63350;SDS011;54336;51.058;17.040;2022-10-12T03:01:41;21.40;;;8.55;;
63350;SDS011;54336;51.058;17.040;2022-10-12T03:07:33;23.80;;;8.15;;
63350;SDS011;54336;51.058;17.040;2022-10-12T03:13:26;17.83;;;8.83;;
63350;SDS011;54336;51.058;17.040;2022-10-12T03:19:19;24.90;;;9.07;;
63350;SDS011;54336;51.058;17.040;2022-10-12T03:25:11;19.08;;;9.90;;
63350;SDS011;54336;51.058;17.040;2022-10-12T03:31:03;23.67;;;8.98;;
63350;SDS011;54336;51.058;17.040;2022-10-12T03:36:55;24.83;;;7.47;;
63350;SDS011;54336;51.058;17.040;2022-10-12T03:42:47;31.77;;;9.70;;
63350;SDS011;54336;51.058;17.040;2022-10-12T03:48:39;19.67;;;8.00;;
63350;SDS011;54336;51.058;17.040;2022-10-12T03:54:32;28.33;;;8.87;;
63350;SDS011;54336;51.058;17.040;2022-10-12T04:00:43;22.35;;;8.68;;
63350;SDS011;54336;51.058;17.040;2022-10-12T04:06:37;25.85;;;8.07;;
63350;SDS011;54336;51.058;17.040;2022-10-12T04:12:29;22.10;;;6.72;;
63350;SDS011;54336;51.058;17.040;2022-10-12T04:18:21;22.00;;;8.43;;
63350;SDS011;54336;51.058;17.040;2022-10-12T04:24:13;17.58;;;9.02;;
63350;SDS011;54336;51.058;17.040;2022-10-12T04:30:05;20.27;;;7.82;;
63350;SDS011;54336;51.058;17.040;2022-10-12T04:35:57;24.17;;;9.45;;
63350;SDS011;54336;51.058;17.040;2022-10-12T04:41:50;15.02;;;7.80;;
63350;SDS011;54336;51.058;17.040;2022-10-12T04:47:41;21.67;;;9.63;;
63350;SDS011;54336;51.058;17.040;2022-10-12T04:53:34;24.38;;;9.20;;
63350;SDS011;54336;51.058;17.040;2022-10-12T04:59:26;21.93;;;10.43;;
63350;SDS011;54336;51.058;17.040;2022-10-12T05:05:18;20.95;;;10.85;;
63350;SDS011;54336;51.058;17.040;2022-10-12T05:11:11;24.33;;;9.85;;
63350;SDS011;54336;51.058;17.040;2022-10-12T05:17:02;23.02;;;9.07;;
63350;SDS011;54336;51.058;17.040;2022-10-12T05:22:58;19.13;;;8.75;;
63350;SDS011;54336;51.058;17.040;2022-10-12T05:28:50;16.30;;;7.95;;
63350;SDS011;54336;51.058;17.040;2022-10-12T05:34:43;23.63;;;9.18;;
63350;SDS011;54336;51.058;17.040;2022-10-12T05:40:36;24.53;;;11.57;;
63350;SDS011;54336;51.058;17.040;2022-10-12T05:46:28;19.77;;;7.07;;
63350;SDS011;54336;51.058;17.040;2022-10-12T05:52:20;17.15;;;8.80;;
63350;SDS011;54336;51.058;17.040;2022-10-12T05:58:11;27.73;;;9.25;;
63350;SDS011;54336;51.058;17.040;2022-10-12T06:04:04;57.15;;;10.45;;
63350;SDS011;54336;51.058;17.040;2022-10-12T06:15:50;30.23;;;12.23;;
63350;SDS011;54336;51.058;17.040;2022-10-12T06:21:43;27.55;;;12.13;;
63350;SDS011;54336;51.058;17.040;2022-10-12T06:27:35;25.25;;;13.88;;
63350;SDS011;54336;51.058;17.040;2022-10-12T06:33:28;30.50;;;12.80;;
63350;SDS011;54336;51.058;17.040;2022-10-12T06:39:20;30.02;;;13.98;;
63350;SDS011;54336;51.058;17.040;2022-10-12T06:45:13;46.07;;;16.87;;
63350;SDS011;54336;51.058;17.040;2022-10-12T06:51:05;41.45;;;15.48;;
63350;SDS011;54336;51.058;17.040;2022-10-12T06:56:57;37.28;;;16.52;;
63350;SDS011;54336;51.058;17.040;2022-10-12T07:02:49;40.67;;;16.67;;
63350;SDS011;54336;51.058;17.040;2022-10-12T07:08:42;42.03;;;16.50;;
63350;SDS011;54336;51.058;17.040;2022-10-12T07:14:36;38.25;;;16.75;;
63350;SDS011;54336;51.058;17.040;2022-10-12T07:20:28;43.38;;;18.33;;
63350;SDS011;54336;51.058;17.040;2022-10-12T07:26:20;39.63;;;17.92;;
63350;SDS011;54336;51.058;17.040;2022-10-12T07:32:12;37.47;;;16.48;;
63350;SDS011;54336;51.058;17.040;2022-10-12T07:38:04;32.40;;;16.45;;
63350;SDS011;54336;51.058;17.040;2022-10-12T07:43:56;33.57;;;16.73;;
63350;SDS011;54336;51.058;17.040;2022-10-12T07:49:48;39.08;;;17.55;;
63350;SDS011;54336;51.058;17.040;2022-10-12T07:55:40;37.93;;;16.93;;
63350;SDS011;54336;51.058;17.040;2022-10-12T08:01:32;31.30;;;14.90;;
63350;SDS011;54336;51.058;17.040;2022-10-12T08:07:25;25.02;;;13.93;;
63350;SDS011;54336;51.058;17.040;2022-10-12T08:13:17;27.10;;;14.43;;
63350;SDS011;54336;51.058;17.040;2022-10-12T08:19:11;27.38;;;14.70;;
63350;SDS011;54336;51.058;17.040;2022-10-12T08:25:04;24.65;;;12.55;;
63350;SDS011;54336;51.058;17.040;2022-10-12T08:30:57;24.10;;;13.93;;
63350;SDS011;54336;51.058;17.040;2022-10-12T08:36:50;22.23;;;12.57;;
63350;SDS011;54336;51.058;17.040;2022-10-12T08:55:03;18.48;;;10.48;;
63350;SDS011;54336;51.058;17.040;2022-10-12T09:00:47;22.65;;;11.57;;
63350;SDS011;54336;51.058;17.040;2022-10-12T09:12:41;19.00;;;9.00;;
63350;SDS011;54336;51.058;17.040;2022-10-12T09:18:41;15.50;;;8.55;;
63350;SDS011;54336;51.058;17.040;2022-10-12T09:24:35;17.75;;;7.82;;
63350;SDS011;54336;51.058;17.040;2022-10-12T09:30:30;18.85;;;8.75;;
63350;SDS011;54336;51.058;17.040;2022-10-12T09:36:28;17.50;;;8.45;;
63350;SDS011;54336;51.058;17.040;2022-10-12T09:42:22;18.73;;;9.30;;
63350;SDS011;54336;51.058;17.040;2022-10-12T09:54:06;21.45;;;6.55;;
63350;SDS011;54336;51.058;17.040;2022-10-12T10:00:26;12.48;;;5.97;;
63350;SDS011;54336;51.058;17.040;2022-10-12T10:06:23;17.17;;;6.83;;
63350;SDS011;54336;51.058;17.040;2022-10-12T10:30:17;6.05;;;3.03;;
63350;SDS011;54336;51.058;17.040;2022-10-12T10:36:26;8.13;;;3.65;;
63350;SDS011;54336;51.058;17.040;2022-10-12T10:42:21;8.98;;;4.05;;
63350;SDS011;54336;51.058;17.040;2022-10-12T10:48:17;7.40;;;3.85;;
63350;SDS011;54336;51.058;17.040;2022-10-12T10:54:14;7.88;;;3.60;;
63350;SDS011;54336;51.058;17.040;2022-10-12T11:00:08;4.07;;;2.80;;
63350;SDS011;54336;51.058;17.040;2022-10-12T11:06:27;5.75;;;3.50;;
63350;SDS011;54336;51.058;17.040;2022-10-12T11:12:25;7.47;;;2.25;;
63350;SDS011;54336;51.058;17.040;2022-10-12T11:30:35;6.45;;;1.40;;
63350;SDS011;54336;51.058;17.040;2022-10-12T11:36:28;4.32;;;1.60;;
63350;SDS011;54336;51.058;17.040;2022-10-12T11:42:37;3.65;;;1.55;;
63350;SDS011;54336;51.058;17.040;2022-10-12T11:48:35;4.38;;;1.40;;
63350;SDS011;54336;51.058;17.040;2022-10-12T12:12:23;3.42;;;2.25;;
63350;SDS011;54336;51.058;17.040;2022-10-12T12:18:17;4.88;;;1.77;;
63350;SDS011;54336;51.058;17.040;2022-10-12T12:24:15;3.22;;;1.77;;
63350;SDS011;54336;51.058;17.040;2022-10-12T12:36:25;8.45;;;3.25;;
63350;SDS011;54336;51.058;17.040;2022-10-12T12:42:24;5.20;;;2.05;;
63350;SDS011;54336;51.058;17.040;2022-10-12T12:48:47;6.95;;;2.60;;
63350;SDS011;54336;51.058;17.040;2022-10-12T12:54:29;4.70;;;2.33;;
63350;SDS011;54336;51.058;17.040;2022-10-12T13:00:24;6.72;;;2.10;;
63350;SDS011;54336;51.058;17.040;2022-10-12T13:18:39;9.82;;;2.22;;
63350;SDS011;54336;51.058;17.040;2022-10-12T13:36:30;2.63;;;1.70;;
63350;SDS011;54336;51.058;17.040;2022-10-12T13:42:24;8.05;;;2.38;;
63350;SDS011;54336;51.058;17.040;2022-10-12T13:48:18;5.93;;;2.55;;
63350;SDS011;54336;51.058;17.040;2022-10-12T13:54:38;3.70;;;1.50;;
63350;SDS011;54336;51.058;17.040;2022-10-12T14:00:32;6.32;;;1.65;;
63350;SDS011;54336;51.058;17.040;2022-10-12T14:06:35;2.15;;;1.63;;
63350;SDS011;54336;51.058;17.040;2022-10-12T14:12:29;4.22;;;2.13;;
63350;SDS011;54336;51.058;17.040;2022-10-12T14:18:29;6.55;;;1.60;;
63350;SDS011;54336;51.058;17.040;2022-10-12T14:24:22;5.50;;;2.25;;
63350;SDS011;54336;51.058;17.040;2022-10-12T14:30:18;4.03;;;1.73;;
63350;SDS011;54336;51.058;17.040;2022-10-12T14:36:24;2.65;;;1.67;;
63350;SDS011;54336;51.058;17.040;2022-10-12T14:48:12;2.70;;;1.63;;
63350;SDS011;54336;51.058;17.040;2022-10-12T14:54:08;4.43;;;1.80;;
63350;SDS011;54336;51.058;17.040;2022-10-12T15:00:00;4.32;;;1.42;;
63350;SDS011;54336;51.058;17.040;2022-10-12T15:05:52;5.28;;;1.73;;
63350;SDS011;54336;51.058;17.040;2022-10-12T15:11:44;4.07;;;1.83;;
63350;SDS011;54336;51.058;17.040;2022-10-12T15:17:36;4.80;;;1.90;;
63350;SDS011;54336;51.058;17.040;2022-10-12T15:23:29;7.40;;;2.15;;
63350;SDS011;54336;51.058;17.040;2022-10-12T15:29:21;2.75;;;1.27;;
63350;SDS011;54336;51.058;17.040;2022-10-12T15:35:15;6.78;;;1.92;;
63350;SDS011;54336;51.058;17.040;2022-10-12T15:41:13;3.35;;;1.80;;
63350;SDS011;54336;51.058;17.040;2022-10-12T15:47:07;7.97;;;2.40;;
63350;SDS011;54336;51.058;17.040;2022-10-12T15:58:52;3.35;;;1.75;;
63350;SDS011;54336;51.058;17.040;2022-10-12T16:04:44;7.18;;;3.20;;
63350;SDS011;54336;51.058;17.040;2022-10-12T16:10:38;7.93;;;3.10;;
63350;SDS011;54336;51.058;17.040;2022-10-12T16:16:30;8.77;;;2.33;;
63350;SDS011;54336;51.058;17.040;2022-10-12T16:22:23;5.53;;;2.13;;
63350;SDS011;54336;51.058;17.040;2022-10-12T16:28:15;5.57;;;2.55;;
63350;SDS011;54336;51.058;17.040;2022-10-12T16:34:08;6.40;;;2.47;;
63350;SDS011;54336;51.058;17.040;2022-10-12T16:40:02;10.98;;;3.90;;
63350;SDS011;54336;51.058;17.040;2022-10-12T16:45:55;8.13;;;3.72;;
63350;SDS011;54336;51.058;17.040;2022-10-12T16:51:48;13.63;;;5.00;;
63350;SDS011;54336;51.058;17.040;2022-10-12T16:57:41;14.90;;;7.03;;
63350;SDS011;54336;51.058;17.040;2022-10-12T17:03:33;19.97;;;6.77;;
63350;SDS011;54336;51.058;17.040;2022-10-12T17:09:26;15.45;;;7.57;;
63350;SDS011;54336;51.058;17.040;2022-10-12T17:15:18;22.23;;;8.65;;
63350;SDS011;54336;51.058;17.040;2022-10-12T17:21:11;21.83;;;7.97;;
63350;SDS011;54336;51.058;17.040;2022-10-12T17:27:03;16.15;;;6.32;;
63350;SDS011;54336;51.058;17.040;2022-10-12T17:32:55;21.67;;;5.88;;
63350;SDS011;54336;51.058;17.040;2022-10-12T17:38:47;16.30;;;6.45;;
63350;SDS011;54336;51.058;17.040;2022-10-12T17:44:41;15.90;;;6.00;;
63350;SDS011;54336;51.058;17.040;2022-10-12T17:50:33;18.10;;;7.00;;
63350;SDS011;54336;51.058;17.040;2022-10-12T17:56:27;17.77;;;7.40;;
63350;SDS011;54336;51.058;17.040;2022-10-12T18:02:23;17.38;;;7.88;;
63350;SDS011;54336;51.058;17.040;2022-10-12T18:08:19;18.85;;;7.45;;
63350;SDS011;54336;51.058;17.040;2022-10-12T18:14:12;19.10;;;7.07;;
63350;SDS011;54336;51.058;17.040;2022-10-12T18:20:04;19.02;;;8.35;;
63350;SDS011;54336;51.058;17.040;2022-10-12T18:26:01;23.25;;;7.88;;
63350;SDS011;54336;51.058;17.040;2022-10-12T18:31:53;18.70;;;6.88;;
63350;SDS011;54336;51.058;17.040;2022-10-12T18:37:45;20.77;;;7.85;;
63350;SDS011;54336;51.058;17.040;2022-10-12T18:43:38;18.45;;;7.57;;
63350;SDS011;54336;51.058;17.040;2022-10-12T18:49:31;21.07;;;8.13;;
63350;SDS011;54336;51.058;17.040;2022-10-12T18:55:26;21.92;;;7.75;;
63350;SDS011;54336;51.058;17.040;2022-10-12T19:01:20;22.25;;;9.63;;
63350;SDS011;54336;51.058;17.040;2022-10-12T19:13:06;21.63;;;8.85;;
63350;SDS011;54336;51.058;17.040;2022-10-12T19:19:03;24.60;;;10.27;;
63350;SDS011;54336;51.058;17.040;2022-10-12T19:24:56;22.60;;;9.55;;
63350;SDS011;54336;51.058;17.040;2022-10-12T19:30:49;18.73;;;8.47;;
63350;SDS011;54336;51.058;17.040;2022-10-12T19:36:43;27.45;;;10.57;;
63350;SDS011;54336;51.058;17.040;2022-10-12T19:42:38;24.58;;;7.70;;
63350;SDS011;54336;51.058;17.040;2022-10-12T19:48:30;23.52;;;10.65;;
63350;SDS011;54336;51.058;17.040;2022-10-12T20:00:16;18.48;;;8.48;;
63350;SDS011;54336;51.058;17.040;2022-10-12T20:06:11;19.63;;;8.13;;
63350;SDS011;54336;51.058;17.040;2022-10-12T20:12:05;18.90;;;7.85;;
63350;SDS011;54336;51.058;17.040;2022-10-12T20:17:57;20.92;;;7.30;;
63350;SDS011;54336;51.058;17.040;2022-10-12T20:23:49;21.30;;;8.98;;
63350;SDS011;54336;51.058;17.040;2022-10-12T20:29:43;26.00;;;10.77;;
63350;SDS011;54336;51.058;17.040;2022-10-12T20:35:36;18.70;;;8.20;;
63350;SDS011;54336;51.058;17.040;2022-10-12T20:41:28;16.05;;;8.18;;
63350;SDS011;54336;51.058;17.040;2022-10-12T20:47:21;22.50;;;9.23;;
63350;SDS011;54336;51.058;17.040;2022-10-12T20:53:13;27.67;;;9.45;;
63350;SDS011;54336;51.058;17.040;2022-10-12T20:59:05;18.80;;;9.55;;
63350;SDS011;54336;51.058;17.040;2022-10-12T21:04:57;22.17;;;9.82;;
63350;SDS011;54336;51.058;17.040;2022-10-12T21:10:49;22.90;;;9.57;;
63350;SDS011;54336;51.058;17.040;2022-10-12T21:16:41;22.10;;;10.52;;
63350;SDS011;54336;51.058;17.040;2022-10-12T21:22:33;29.83;;;11.77;;
63350;SDS011;54336;51.058;17.040;2022-10-12T21:28:25;29.17;;;11.38;;
63350;SDS011;54336;51.058;17.040;2022-10-12T21:34:18;27.33;;;11.05;;
63350;SDS011;54336;51.058;17.040;2022-10-12T21:40:11;32.08;;;10.25;;
63350;SDS011;54336;51.058;17.040;2022-10-12T21:46:04;33.08;;;11.60;;
63350;SDS011;54336;51.058;17.040;2022-10-12T21:51:57;26.52;;;10.88;;
63350;SDS011;54336;51.058;17.040;2022-10-12T21:57:49;22.35;;;10.13;;
63350;SDS011;54336;51.058;17.040;2022-10-12T22:03:41;30.85;;;9.48;;
63350;SDS011;54336;51.058;17.040;2022-10-12T22:09:34;29.02;;;12.45;;
63350;SDS011;54336;51.058;17.040;2022-10-12T22:15:26;22.15;;;10.80;;
63350;SDS011;54336;51.058;17.040;2022-10-12T22:27:12;24.23;;;11.25;;
63350;SDS011;54336;51.058;17.040;2022-10-12T22:33:04;30.35;;;9.52;;
63350;SDS011;54336;51.058;17.040;2022-10-12T22:38:58;30.70;;;9.75;;
63350;SDS011;54336;51.058;17.040;2022-10-12T22:44:50;22.17;;;9.95;;
63350;SDS011;54336;51.058;17.040;2022-10-12T22:50:45;21.00;;;9.30;;
63350;SDS011;54336;51.058;17.040;2022-10-12T22:56:38;25.77;;;9.20;;
63350;SDS011;54336;51.058;17.040;2022-10-12T23:02:31;26.60;;;11.95;;
63350;SDS011;54336;51.058;17.040;2022-10-12T23:08:23;21.63;;;10.63;;
63350;SDS011;54336;51.058;17.040;2022-10-12T23:14:16;25.17;;;12.50;;
63350;SDS011;54336;51.058;17.040;2022-10-12T23:20:09;20.67;;;9.98;;
63350;SDS011;54336;51.058;17.040;2022-10-12T23:26:02;16.70;;;10.38;;
63350;SDS011;54336;51.058;17.040;2022-10-12T23:31:55;24.75;;;11.65;;
63350;SDS011;54336;51.058;17.040;2022-10-12T23:37:48;22.60;;;9.57;;
63350;SDS011;54336;51.058;17.040;2022-10-12T23:43:40;25.73;;;12.05;;
63350;SDS011;54336;51.058;17.040;2022-10-12T23:49:32;25.27;;;11.90;;
63350;SDS011;54336;51.058;17.040;2022-10-12T23:55:30;16.50;;;9.20;;
